Time;durP1;ratioP1;P1;durP2;ratioP2;P2;SDS_P1;SDS_P2;PMS_P1;PMS_P2;Temp;Humidity;BMP_temperature;BMP_pressure;BME280_temperature;BME280_humidity;BME280_pressure;Samples;Min_cycle;Max_cycle;Signal;HPM_P1;HPM_P2
2022/10/24 00:02:21;;;;;;;10.75;1.85;;;;;;;;;;5090810;28;20374;-81
2022/10/24 00:04:48;;;;;;;5.32;1.50;;;;;;;;;;5089757;28;20076;-83
2022/10/24 00:07:14;;;;;;;7.70;1.73;;;;;;;;;;5066899;28;20112;-80
2022/10/24 00:09:41;;;;;;;4.70;1.38;;;;;;;;;;5065316;28;20056;-83
2022/10/24 00:12:07;;;;;;;8.30;1.65;;;;;;;;;;5083809;28;20082;-84
2022/10/24 00:14:34;;;;;;;9.80;1.42;;;;;;;;;;5083717;28;20052;-82
2022/10/24 00:17:01;;;;;;;7.78;1.65;;;;;;;;;;5083052;28;20121;-81
2022/10/24 00:19:30;;;;;;;4.55;1.50;;;;;;;;;;5082486;28;20041;-84
2022/10/24 00:21:56;;;;;;;4.82;1.40;;;;;;;;;;5081904;28;20044;-83
2022/10/24 00:24:24;;;;;;;4.18;1.80;;;;;;;;;;5070073;28;20222;-83
2022/10/24 00:26:50;;;;;;;9.60;1.90;;;;;;;;;;5053139;28;20132;-82
2022/10/24 00:29:17;;;;;;;6.63;1.58;;;;;;;;;;5067986;28;20053;-82
2022/10/24 00:31:43;;;;;;;6.10;1.30;;;;;;;;;;5049196;28;20115;-82
2022/10/24 00:34:10;;;;;;;5.97;1.45;;;;;;;;;;5063676;28;20052;-83
2022/10/24 00:36:36;;;;;;;4.20;1.33;;;;;;;;;;5045947;28;20059;-81
2022/10/24 00:39:03;;;;;;;11.25;1.35;;;;;;;;;;5047598;28;20077;-86
2022/10/24 00:41:33;;;;;;;6.80;1.45;;;;;;;;;;5065821;28;20294;-82
2022/10/24 00:44:15;;;;;;;7.93;1.30;;;;;;;;;;5065745;28;20120;-83
2022/10/24 00:46:58;;;;;;;4.60;1.50;;;;;;;;;;5065806;28;20053;-81
2022/10/24 00:49:28;;;;;;;6.47;1.55;;;;;;;;;;5036445;28;20045;-81
2022/10/24 00:51:57;;;;;;;7.13;1.15;;;;;;;;;;5051821;28;20055;-81
2022/10/24 00:54:27;;;;;;;6.57;1.58;;;;;;;;;;5064053;28;20055;-84
2022/10/24 00:57:06;;;;;;;6.00;1.35;;;;;;;;;;5061047;28;20056;-83
2022/10/24 00:59:33;;;;;;;4.68;1.58;;;;;;;;;;5060133;28;20055;-82
2022/10/24 01:02:03;;;;;;;6.38;1.33;;;;;;;;;;5061582;28;20055;-84
2022/10/24 01:04:29;;;;;;;6.10;1.60;;;;;;;;;;5061638;28;20045;-84
2022/10/24 01:07:09;;;;;;;6.65;1.45;;;;;;;;;;5061017;28;20053;-85
2022/10/24 01:09:38;;;;;;;10.05;1.65;;;;;;;;;;5043253;28;20053;-84
2022/10/24 01:12:07;;;;;;;12.10;1.50;;;;;;;;;;5061963;28;20073;-84
2022/10/24 01:14:49;;;;;;;6.68;1.30;;;;;;;;;;5061508;28;20049;-82
2022/10/24 01:17:18;;;;;;;6.95;1.38;;;;;;;;;;5044034;28;20109;-82
2022/10/24 01:19:48;;;;;;;9.30;1.88;;;;;;;;;;5061560;28;20053;-85
2022/10/24 01:22:17;;;;;;;8.82;1.60;;;;;;;;;;5061270;28;20195;-84
2022/10/24 01:24:47;;;;;;;5.00;1.33;;;;;;;;;;5044617;28;20229;-85
2022/10/24 01:27:13;;;;;;;8.52;1.48;;;;;;;;;;5063001;28;20055;-86
2022/10/24 01:30:03;;;;;;;5.75;1.60;;;;;;;;;;5063058;28;20215;-85
2022/10/24 01:32:49;;;;;;;4.57;1.20;;;;;;;;;;5061471;28;20057;-85
2022/10/24 01:35:15;;;;;;;6.38;1.38;;;;;;;;;;5066424;28;20078;-84
2022/10/24 01:37:51;;;;;;;6.75;1.60;;;;;;;;;;5049257;28;20045;-82
2022/10/24 01:40:22;;;;;;;8.05;1.67;;;;;;;;;;5065769;28;20072;-83
2022/10/24 01:42:50;;;;;;;5.07;1.20;;;;;;;;;;5066608;28;20056;-82
2022/10/24 01:45:22;;;;;;;4.93;1.13;;;;;;;;;;5048067;28;20053;-82
2022/10/24 01:47:51;;;;;;;8.20;1.70;;;;;;;;;;5046383;28;20052;-83
2022/10/24 01:50:19;;;;;;;9.75;1.38;;;;;;;;;;5063589;28;20408;-84
2022/10/24 01:52:46;;;;;;;8.80;1.45;;;;;;;;;;5045943;28;20498;-84
2022/10/24 01:55:13;;;;;;;13.07;1.83;;;;;;;;;;5062707;28;20049;-83
2022/10/24 01:57:41;;;;;;;7.07;1.15;;;;;;;;;;5061002;28;20045;-84
2022/10/24 02:00:11;;;;;;;7.90;1.58;;;;;;;;;;5059183;28;20049;-83
2022/10/24 02:02:37;;;;;;;7.38;1.40;;;;;;;;;;5060187;28;20114;-83
2022/10/24 02:05:07;;;;;;;6.75;1.40;;;;;;;;;;5058978;28;20045;-84
2022/10/24 02:07:35;;;;;;;8.48;1.25;;;;;;;;;;5043997;28;20063;-84
2022/10/24 02:10:06;;;;;;;4.45;1.27;;;;;;;;;;5058951;28;20385;-83
2022/10/24 02:12:33;;;;;;;4.65;1.20;;;;;;;;;;5045847;28;20060;-84
2022/10/24 02:15:03;;;;;;;5.20;1.30;;;;;;;;;;5039159;28;20054;-84
2022/10/24 02:17:30;;;;;;;11.68;1.70;;;;;;;;;;5048690;28;20048;-81
2022/10/24 02:19:56;;;;;;;4.65;0.93;;;;;;;;;;5054980;28;20093;-81
2022/10/24 02:22:27;;;;;;;6.75;1.27;;;;;;;;;;5055797;28;20105;-82
2022/10/24 02:24:56;;;;;;;5.72;1.50;;;;;;;;;;5038007;28;20053;-81
2022/10/24 02:27:31;;;;;;;5.47;1.08;;;;;;;;;;5037381;28;20052;-83
2022/10/24 02:30:04;;;;;;;7.68;1.02;;;;;;;;;;5053631;28;20050;-81
2022/10/24 02:32:41;;;;;;;7.00;1.20;;;;;;;;;;5035309;28;20115;-82
2022/10/24 02:35:09;;;;;;;7.43;1.35;;;;;;;;;;5024463;28;20514;-85
2022/10/24 02:37:38;;;;;;;4.47;1.10;;;;;;;;;;5031381;28;20056;-82
2022/10/24 02:40:06;;;;;;;3.65;1.10;;;;;;;;;;5026377;28;20045;-85
2022/10/24 02:42:33;;;;;;;5.18;1.05;;;;;;;;;;5019733;28;20042;-84
2022/10/24 02:45:00;;;;;;;8.00;1.10;;;;;;;;;;5038878;28;20041;-83
2022/10/24 02:47:27;;;;;;;2.85;0.90;;;;;;;;;;5037573;28;20087;-84
2022/10/24 02:49:53;;;;;;;6.85;1.77;;;;;;;;;;5020367;28;20056;-85
2022/10/24 02:52:22;;;;;;;5.75;1.10;;;;;;;;;;5020487;28;20128;-84
2022/10/24 02:54:49;;;;;;;6.75;1.13;;;;;;;;;;5039337;28;20054;-85
2022/10/24 02:57:15;;;;;;;7.50;1.45;;;;;;;;;;5021001;28;20051;-84
2022/10/24 02:59:41;;;;;;;5.63;1.23;;;;;;;;;;5020906;28;20045;-84
2022/10/24 03:02:08;;;;;;;5.60;1.20;;;;;;;;;;5039123;28;20054;-85
2022/10/24 03:04:34;;;;;;;10.50;1.58;;;;;;;;;;5038373;28;20140;-86
2022/10/24 03:07:01;;;;;;;7.22;1.45;;;;;;;;;;5021138;28;20296;-82
2022/10/24 03:09:27;;;;;;;6.53;1.40;;;;;;;;;;5042654;28;20047;-83
2022/10/24 03:11:53;;;;;;;8.18;1.45;;;;;;;;;;5043408;28;20053;-84
2022/10/24 03:14:20;;;;;;;4.93;1.67;;;;;;;;;;5043211;28;20041;-82
2022/10/24 03:16:46;;;;;;;8.00;1.63;;;;;;;;;;5025132;28;20049;-84
2022/10/24 03:19:13;;;;;;;8.77;1.50;;;;;;;;;;5022667;28;20077;-82
2022/10/24 03:21:40;;;;;;;7.90;1.50;;;;;;;;;;5040518;28;20225;-83
2022/10/24 03:24:07;;;;;;;5.65;1.90;;;;;;;;;;5040876;28;20544;-82
2022/10/24 03:26:33;;;;;;;11.80;1.52;;;;;;;;;;5022194;28;20091;-82
2022/10/24 03:29:00;;;;;;;9.25;1.70;;;;;;;;;;5046108;28;20132;-81
2022/10/24 03:31:26;;;;;;;11.20;1.75;;;;;;;;;;5031445;28;20053;-84
2022/10/24 03:33:52;;;;;;;9.00;1.92;;;;;;;;;;5018804;28;20053;-85
2022/10/24 03:36:19;;;;;;;7.22;1.92;;;;;;;;;;5035743;28;20101;-84
2022/10/24 03:38:45;;;;;;;9.45;1.65;;;;;;;;;;5019175;28;20045;-85
2022/10/24 03:41:11;;;;;;;15.38;2.20;;;;;;;;;;5037002;28;20084;-83
2022/10/24 03:43:41;;;;;;;7.88;1.70;;;;;;;;;;5020803;28;20049;-84
2022/10/24 03:46:07;;;;;;;5.72;1.83;;;;;;;;;;5021368;28;20049;-85
2022/10/24 03:48:34;;;;;;;7.18;1.70;;;;;;;;;;5020568;28;20081;-84
2022/10/24 03:51:00;;;;;;;8.95;1.95;;;;;;;;;;5038940;28;20122;-84
2022/10/24 03:53:26;;;;;;;6.18;1.80;;;;;;;;;;5037914;28;20323;-84
2022/10/24 03:55:53;;;;;;;9.07;2.05;;;;;;;;;;5041345;28;20413;-82
2022/10/24 03:58:20;;;;;;;6.75;1.80;;;;;;;;;;5039021;28;20498;-86
2022/10/24 04:00:46;;;;;;;8.98;2.13;;;;;;;;;;5036032;28;20054;-84
2022/10/24 04:03:12;;;;;;;9.00;1.92;;;;;;;;;;5038260;28;20108;-86
2022/10/24 04:05:39;;;;;;;10.55;1.75;;;;;;;;;;5023112;28;20038;-83
2022/10/24 04:08:06;;;;;;;8.23;1.60;;;;;;;;;;5037080;28;20049;-86
2022/10/24 04:10:32;;;;;;;7.60;1.75;;;;;;;;;;5036364;28;20486;-88
2022/10/24 04:12:58;;;;;;;9.35;2.53;;;;;;;;;;5052809;28;20465;-88
2022/10/24 04:15:25;;;;;;;9.85;1.65;;;;;;;;;;5037538;28;20045;-86
2022/10/24 04:17:51;;;;;;;11.40;1.63;;;;;;;;;;5036736;28;20320;-86
2022/10/24 04:20:19;;;;;;;11.57;1.70;;;;;;;;;;5062411;28;20052;-84
2022/10/24 04:22:46;;;;;;;8.43;1.83;;;;;;;;;;5039568;28;20049;-87
2022/10/24 04:25:13;;;;;;;10.40;1.92;;;;;;;;;;5040757;28;20053;-87
2022/10/24 04:27:39;;;;;;;8.60;1.65;;;;;;;;;;5041240;28;20207;-84
2022/10/24 04:30:10;;;;;;;9.30;2.10;;;;;;;;;;5058968;28;20135;-86
2022/10/24 04:32:42;;;;;;;6.95;2.63;;;;;;;;;;5059741;28;20052;-87
2022/10/24 04:35:09;;;;;;;16.92;2.50;;;;;;;;;;5041889;28;20052;-88
2022/10/24 04:37:37;;;;;;;9.88;1.92;;;;;;;;;;5041295;28;20045;-87
2022/10/24 04:40:03;;;;;;;11.65;2.35;;;;;;;;;;5041038;28;20053;-88
2022/10/24 04:42:30;;;;;;;8.05;1.92;;;;;;;;;;5060825;28;20049;-85
2022/10/24 04:44:56;;;;;;;9.18;1.80;;;;;;;;;;5043088;28;20075;-85
2022/10/24 04:47:23;;;;;;;6.63;1.73;;;;;;;;;;5062617;28;20055;-85
2022/10/24 04:49:49;;;;;;;7.13;1.70;;;;;;;;;;5042822;28;20056;-85
2022/10/24 04:52:15;;;;;;;11.55;2.20;;;;;;;;;;5060528;28;20049;-87
2022/10/24 04:54:42;;;;;;;8.63;1.65;;;;;;;;;;5041797;28;20044;-87
2022/10/24 04:57:08;;;;;;;9.40;1.95;;;;;;;;;;5042983;28;20056;-86
2022/10/24 04:59:34;;;;;;;10.07;2.00;;;;;;;;;;5060399;28;20560;-86
2022/10/24 05:02:01;;;;;;;15.90;2.25;;;;;;;;;;5041180;28;20053;-85
2022/10/24 05:04:27;;;;;;;8.80;2.22;;;;;;;;;;5041761;28;20076;-85
2022/10/24 05:06:54;;;;;;;6.85;1.90;;;;;;;;;;5071369;28;20478;-83
2022/10/24 05:09:20;;;;;;;7.93;2.08;;;;;;;;;;5049339;28;20049;-87
2022/10/24 05:11:46;;;;;;;6.55;1.50;;;;;;;;;;5069120;28;20060;-87
2022/10/24 05:14:13;;;;;;;10.90;1.90;;;;;;;;;;5059433;28;20053;-86
2022/10/24 05:16:39;;;;;;;4.43;1.75;;;;;;;;;;5040918;28;20060;-87
2022/10/24 05:19:05;;;;;;;6.90;1.70;;;;;;;;;;5057240;28;20053;-86
2022/10/24 05:21:32;;;;;;;11.93;1.95;;;;;;;;;;5066059;28;20060;-84
2022/10/24 05:23:59;;;;;;;14.77;2.17;;;;;;;;;;5043371;28;20122;-86
2022/10/24 05:26:25;;;;;;;15.35;2.40;;;;;;;;;;5040923;28;20072;-85
2022/10/24 05:28:51;;;;;;;5.85;1.65;;;;;;;;;;5044123;28;20211;-87
2022/10/24 05:31:18;;;;;;;8.48;2.03;;;;;;;;;;5041457;28;20053;-86
2022/10/24 05:33:44;;;;;;;9.30;2.40;;;;;;;;;;5059009;28;20053;-85
2022/10/24 05:36:11;;;;;;;11.27;2.45;;;;;;;;;;5041986;28;20593;-86
2022/10/24 05:38:37;;;;;;;13.02;1.92;;;;;;;;;;5041976;28;20049;-85
2022/10/24 05:41:03;;;;;;;9.25;2.10;;;;;;;;;;5060568;28;20124;-84
2022/10/24 05:43:30;;;;;;;13.02;2.47;;;;;;;;;;5057730;28;20049;-85
2022/10/24 05:45:56;;;;;;;10.05;2.20;;;;;;;;;;5059310;28;20501;-88
2022/10/24 05:48:22;;;;;;;7.25;2.30;;;;;;;;;;5059249;28;20087;-86
2022/10/24 05:50:49;;;;;;;9.27;2.15;;;;;;;;;;5058996;28;20049;-86
2022/10/24 05:53:15;;;;;;;12.63;2.20;;;;;;;;;;5060292;28;20056;-86
2022/10/24 05:55:42;;;;;;;14.57;2.55;;;;;;;;;;5043602;28;20045;-88
2022/10/24 05:58:08;;;;;;;9.27;1.88;;;;;;;;;;5042838;28;20104;-86
2022/10/24 06:00:34;;;;;;;15.25;2.15;;;;;;;;;;5060572;28;20049;-86
2022/10/24 06:03:01;;;;;;;10.70;2.10;;;;;;;;;;5040969;28;20056;-87
2022/10/24 06:05:27;;;;;;;7.80;1.95;;;;;;;;;;5062934;28;20040;-86
2022/10/24 06:07:53;;;;;;;10.70;2.05;;;;;;;;;;5059037;28;20051;-87
2022/10/24 06:10:20;;;;;;;7.38;2.20;;;;;;;;;;5041163;28;20045;-86
2022/10/24 06:12:46;;;;;;;11.57;2.10;;;;;;;;;;5048379;28;20052;-84
2022/10/24 06:15:13;;;;;;;8.48;2.05;;;;;;;;;;5052963;28;20044;-84
2022/10/24 06:17:40;;;;;;;6.63;2.15;;;;;;;;;;5067507;28;20055;-86
2022/10/24 06:20:06;;;;;;;9.68;2.10;;;;;;;;;;5065169;28;20044;-83
2022/10/24 06:22:33;;;;;;;8.57;1.98;;;;;;;;;;5070712;28;20045;-85
2022/10/24 06:25:00;;;;;;;11.30;2.25;;;;;;;;;;5052325;28;20045;-86
2022/10/24 06:27:26;;;;;;;8.23;1.70;;;;;;;;;;5052436;28;20045;-87
2022/10/24 06:29:53;;;;;;;11.15;1.75;;;;;;;;;;5055157;28;20048;-85
2022/10/24 06:32:19;;;;;;;10.27;2.35;;;;;;;;;;5057023;28;20056;-84
2022/10/24 06:34:46;;;;;;;6.63;2.20;;;;;;;;;;5051348;28;20405;-85
2022/10/24 06:37:12;;;;;;;16.10;1.98;;;;;;;;;;5050719;28;20067;-86
2022/10/24 06:39:38;;;;;;;8.80;2.15;;;;;;;;;;5070162;28;20112;-87
2022/10/24 06:42:05;;;;;;;7.47;2.10;;;;;;;;;;5059359;28;20049;-86
2022/10/24 06:44:31;;;;;;;6.22;1.92;;;;;;;;;;5039637;28;20045;-85
2022/10/24 06:46:58;;;;;;;11.35;2.17;;;;;;;;;;5038682;28;20051;-84
2022/10/24 06:49:25;;;;;;;9.73;2.05;;;;;;;;;;5055572;28;20052;-85
2022/10/24 06:51:51;;;;;;;12.23;2.22;;;;;;;;;;5057213;28;20048;-87
2022/10/24 06:54:17;;;;;;;9.68;2.08;;;;;;;;;;5056614;28;20311;-87
2022/10/24 06:56:44;;;;;;;7.70;1.92;;;;;;;;;;5057969;28;20460;-86
2022/10/24 06:59:12;;;;;;;10.32;2.30;;;;;;;;;;5057286;28;20041;-85
2022/10/24 07:01:39;;;;;;;8.25;1.90;;;;;;;;;;5057192;28;20434;-87
2022/10/24 07:04:06;;;;;;;7.90;1.73;;;;;;;;;;5038494;28;20490;-87
2022/10/24 07:06:32;;;;;;;9.10;1.90;;;;;;;;;;5053932;28;20057;-84
2022/10/24 07:08:59;;;;;;;6.22;1.92;;;;;;;;;;5036076;28;20049;-86
2022/10/24 07:11:26;;;;;;;10.18;2.47;;;;;;;;;;5055306;28;20048;-87
2022/10/24 07:13:53;;;;;;;14.32;2.03;;;;;;;;;;5054922;28;20044;-86
2022/10/24 07:16:27;;;;;;;7.38;2.08;;;;;;;;;;5042164;28;20071;-85
2022/10/24 07:18:53;;;;;;;7.47;2.22;;;;;;;;;;5039465;28;20064;-87
2022/10/24 07:21:21;;;;;;;7.18;2.42;;;;;;;;;;5041761;28;20052;-84
2022/10/24 07:23:50;;;;;;;13.75;2.50;;;;;;;;;;5057692;28;20036;-83
2022/10/24 07:26:17;;;;;;;8.00;1.85;;;;;;;;;;5040235;28;20055;-87
2022/10/24 07:28:45;;;;;;;10.00;2.30;;;;;;;;;;5038342;28;20048;-87
2022/10/24 07:31:15;;;;;;;12.13;1.98;;;;;;;;;;5037602;28;20095;-87
2022/10/24 07:33:41;;;;;;;8.68;1.55;;;;;;;;;;5038018;28;20076;-89
2022/10/24 07:36:08;;;;;;;5.43;1.58;;;;;;;;;;5056004;28;20048;-88
2022/10/24 07:38:36;;;;;;;6.15;1.88;;;;;;;;;;5055219;28;20441;-86
2022/10/24 07:41:05;;;;;;;8.50;2.10;;;;;;;;;;5055651;28;20045;-87
2022/10/24 07:43:32;;;;;;;12.18;1.88;;;;;;;;;;5054952;28;20060;-88
2022/10/24 07:45:58;;;;;;;9.82;2.40;;;;;;;;;;5056117;28;20063;-87
2022/10/24 07:48:29;;;;;;;7.03;1.60;;;;;;;;;;5057188;28;20095;-85
2022/10/24 07:50:56;;;;;;;5.65;1.63;;;;;;;;;;5054870;28;20055;-85
2022/10/24 07:53:24;;;;;;;8.90;1.60;;;;;;;;;;5055110;28;20053;-86
2022/10/24 07:55:51;;;;;;;8.80;1.95;;;;;;;;;;5036142;28;20049;-86
2022/10/24 07:58:17;;;;;;;6.30;1.90;;;;;;;;;;5055970;28;20079;-86
2022/10/24 08:00:43;;;;;;;6.93;1.70;;;;;;;;;;5040726;28;20041;-83
2022/10/24 08:03:11;;;;;;;9.88;2.10;;;;;;;;;;5061362;28;20053;-83
2022/10/24 08:05:38;;;;;;;6.05;1.80;;;;;;;;;;5045217;28;20059;-86
2022/10/24 08:08:04;;;;;;;7.63;1.80;;;;;;;;;;5041899;28;20060;-83
2022/10/24 08:10:51;;;;;;;4.57;1.65;;;;;;;;;;5045776;28;20060;-86
2022/10/24 08:13:17;;;;;;;11.07;1.70;;;;;;;;;;5058868;28;20056;-85
2022/10/24 08:15:44;;;;;;;6.00;1.70;;;;;;;;;;5071722;28;20045;-84
2022/10/24 08:18:10;;;;;;;12.88;1.77;;;;;;;;;;5074880;28;20055;-85
2022/10/24 08:20:37;;;;;;;6.53;1.75;;;;;;;;;;5043142;28;20056;-83
2022/10/24 08:23:03;;;;;;;7.40;1.80;;;;;;;;;;5062099;28;20045;-84
2022/10/24 08:25:29;;;;;;;6.88;1.73;;;;;;;;;;5058537;28;20418;-86
2022/10/24 08:27:56;;;;;;;7.72;1.90;;;;;;;;;;5060453;28;20049;-86
2022/10/24 08:30:23;;;;;;;7.45;1.75;;;;;;;;;;5062057;28;20060;-84
2022/10/24 08:32:50;;;;;;;9.60;2.25;;;;;;;;;;5059379;28;20049;-87
2022/10/24 08:35:17;;;;;;;11.30;1.85;;;;;;;;;;5057223;28;20045;-86
2022/10/24 08:37:44;;;;;;;8.63;1.42;;;;;;;;;;5057983;28;20048;-87
2022/10/24 08:40:15;;;;;;;10.95;1.70;;;;;;;;;;5055572;28;20513;-85
2022/10/24 08:42:42;;;;;;;10.35;1.88;;;;;;;;;;5043638;28;20052;-83
2022/10/24 08:45:11;;;;;;;8.68;1.50;;;;;;;;;;5058288;28;20563;-85
2022/10/24 08:47:41;;;;;;;7.18;1.70;;;;;;;;;;5039025;28;20051;-85
2022/10/24 08:50:26;;;;;;;6.75;1.52;;;;;;;;;;5040231;28;20444;-84
2022/10/24 08:53:04;;;;;;;7.68;1.67;;;;;;;;;;5039099;28;20049;-83
2022/10/24 08:55:39;;;;;;;8.68;1.83;;;;;;;;;;5059872;28;20052;-84
2022/10/24 08:58:25;;;;;;;7.70;2.10;;;;;;;;;;5059235;28;20064;-85
2022/10/24 09:00:52;;;;;;;11.38;1.60;;;;;;;;;;5063213;28;20079;-87
2022/10/24 09:03:37;;;;;;;9.50;1.73;;;;;;;;;;5059812;28;20057;-82
2022/10/24 09:06:25;;;;;;;12.55;1.65;;;;;;;;;;5046358;28;20049;-84
2022/10/24 09:09:00;;;;;;;10.02;2.03;;;;;;;;;;5071240;28;20049;-82
2022/10/24 09:11:48;;;;;;;7.82;2.17;;;;;;;;;;5061132;28;20053;-84
2022/10/24 09:14:19;;;;;;;7.93;1.95;;;;;;;;;;5022724;28;20054;-85
2022/10/24 09:16:48;;;;;;;6.45;1.90;;;;;;;;;;5042441;28;20109;-85
2022/10/24 09:19:17;;;;;;;7.10;1.90;;;;;;;;;;5041184;28;20072;-85
2022/10/24 09:21:44;;;;;;;7.43;1.70;;;;;;;;;;5042275;28;20053;-85
2022/10/24 09:24:22;;;;;;;8.65;2.05;;;;;;;;;;5042593;28;20049;-84
2022/10/24 09:26:49;;;;;;;9.07;1.85;;;;;;;;;;5052663;28;20114;-82
2022/10/24 09:29:15;;;;;;;6.57;1.70;;;;;;;;;;5051618;28;20045;-82
2022/10/24 09:31:42;;;;;;;6.93;1.98;;;;;;;;;;5046955;28;20045;-83
2022/10/24 09:34:10;;;;;;;11.23;2.10;;;;;;;;;;5047801;28;20053;-82
2022/10/24 09:36:37;;;;;;;8.40;1.80;;;;;;;;;;5046291;28;20053;-83
2022/10/24 09:39:21;;;;;;;9.48;2.20;;;;;;;;;;5045948;28;20079;-82
2022/10/24 09:41:48;;;;;;;18.50;2.42;;;;;;;;;;5043115;28;20108;-82
2022/10/24 09:44:27;;;;;;;10.45;1.40;;;;;;;;;;5042245;28;20050;-84
2022/10/24 09:46:53;;;;;;;9.50;1.77;;;;;;;;;;5042271;28;20553;-82
2022/10/24 09:49:21;;;;;;;14.98;1.90;;;;;;;;;;5043034;28;20061;-84
2022/10/24 09:52:20;;;;;;;16.10;2.05;;;;;;;;;;5027341;28;20067;-82
2022/10/24 09:55:02;;;;;;;12.35;2.00;;;;;;;;;;5013504;28;20202;-82
2022/10/24 09:57:37;;;;;;;6.70;1.58;;;;;;;;;;5025996;28;20084;-82
2022/10/24 10:00:03;;;;;;;7.30;1.90;;;;;;;;;;5047275;28;20047;-82
2022/10/24 10:02:33;;;;;;;6.45;1.38;;;;;;;;;;5045655;28;20113;-83
2022/10/24 10:05:03;;;;;;;3.90;1.40;;;;;;;;;;5028811;28;20085;-83
2022/10/24 10:07:31;;;;;;;4.78;1.60;;;;;;;;;;5043661;28;20065;-83
2022/10/24 10:09:59;;;;;;;5.63;1.40;;;;;;;;;;5044546;28;20053;-81
2022/10/24 10:12:31;;;;;;;11.07;1.65;;;;;;;;;;5055108;28;20124;-84
2022/10/24 10:14:58;;;;;;;8.20;1.75;;;;;;;;;;5063461;28;20061;-82
2022/10/24 10:17:25;;;;;;;6.93;1.50;;;;;;;;;;5047854;28;20047;-82
2022/10/24 10:19:53;;;;;;;4.53;1.23;;;;;;;;;;5065433;28;20120;-82
2022/10/24 10:22:25;;;;;;;7.25;1.30;;;;;;;;;;5064513;28;20059;-85
2022/10/24 10:24:52;;;;;;;4.75;1.30;;;;;;;;;;5048970;28;20057;-86
2022/10/24 10:27:26;;;;;;;4.80;1.08;;;;;;;;;;5069659;28;20063;-82
2022/10/24 10:30:22;;;;;;;4.93;1.70;;;;;;;;;;5046356;28;20052;-84
2022/10/24 10:32:54;;;;;;;2.88;1.02;;;;;;;;;;5044160;28;20060;-85
2022/10/24 10:35:23;;;;;;;2.53;0.73;;;;;;;;;;5060646;28;20067;-83
2022/10/24 10:37:58;;;;;;;2.72;0.90;;;;;;;;;;5062777;28;20059;-85
2022/10/24 10:40:25;;;;;;;3.08;0.80;;;;;;;;;;5074212;28;20045;-80
2022/10/24 10:42:51;;;;;;;2.65;0.70;;;;;;;;;;5075346;28;20033;-84
2022/10/24 10:45:36;;;;;;;2.63;0.63;;;;;;;;;;5074949;28;20060;-83
2022/10/24 10:48:22;;;;;;;3.40;0.70;;;;;;;;;;5074791;28;20051;-81
2022/10/24 10:51:02;;;;;;;3.33;0.88;;;;;;;;;;5071432;28;20049;-84
2022/10/24 10:53:41;;;;;;;5.40;0.90;;;;;;;;;;5061377;28;20378;-86
2022/10/24 10:56:13;;;;;;;2.67;0.50;;;;;;;;;;5063781;28;20043;-81
2022/10/24 10:58:40;;;;;;;5.55;0.90;;;;;;;;;;5069604;28;20067;-83
2022/10/24 11:01:09;;;;;;;4.15;0.73;;;;;;;;;;5069873;28;20033;-80
2022/10/24 11:03:47;;;;;;;4.95;0.80;;;;;;;;;;5067278;28;20072;-83
2022/10/24 11:06:43;;;;;;;6.15;1.45;;;;;;;;;;5068594;28;20117;-82
2022/10/24 11:09:29;;;;;;;1.23;0.60;;;;;;;;;;5048787;28;20113;-86
2022/10/24 11:11:56;;;;;;;3.60;0.90;;;;;;;;;;5054242;28;20050;-83
2022/10/24 11:14:25;;;;;;;1.67;0.50;;;;;;;;;;5042911;28;20425;-86
2022/10/24 11:16:55;;;;;;;2.08;0.65;;;;;;;;;;5026247;28;20049;-83
2022/10/24 11:19:30;;;;;;;2.35;0.70;;;;;;;;;;5029644;28;20053;-86
2022/10/24 11:21:59;;;;;;;9.88;0.80;;;;;;;;;;5040109;28;20069;-86
2022/10/24 11:24:26;;;;;;;4.35;0.70;;;;;;;;;;5019551;28;20053;-86
2022/10/24 11:27:07;;;;;;;3.10;0.80;;;;;;;;;;5039593;28;20494;-86
2022/10/24 11:29:40;;;;;;;4.88;0.60;;;;;;;;;;5037744;28;20061;-86
2022/10/24 11:32:06;;;;;;;2.55;0.65;;;;;;;;;;5038606;28;20060;-85
2022/10/24 11:34:32;;;;;;;0.80;0.50;;;;;;;;;;5018464;28;20121;-87
2022/10/24 11:37:06;;;;;;;1.80;0.63;;;;;;;;;;5036448;28;20056;-86
2022/10/24 11:39:35;;;;;;;4.80;0.60;;;;;;;;;;5019380;28;20056;-86
2022/10/24 11:42:16;;;;;;;3.10;0.57;;;;;;;;;;5036932;28;20518;-86
2022/10/24 11:45:01;;;;;;;3.17;0.80;;;;;;;;;;5037870;28;20076;-86
2022/10/24 11:47:28;;;;;;;1.52;0.70;;;;;;;;;;5039507;28;20060;-87
2022/10/24 11:50:02;;;;;;;3.35;0.80;;;;;;;;;;5040742;28;20075;-84
2022/10/24 11:52:31;;;;;;;3.80;0.60;;;;;;;;;;5045579;28;20263;-84
2022/10/24 11:54:57;;;;;;;2.17;0.65;;;;;;;;;;5041151;28;20049;-85
2022/10/24 11:57:26;;;;;;;2.85;0.75;;;;;;;;;;5025635;28;20060;-85
2022/10/24 11:59:53;;;;;;;2.78;0.80;;;;;;;;;;5043043;28;20050;-85
2022/10/24 12:02:22;;;;;;;3.08;0.65;;;;;;;;;;5026281;28;20053;-85
2022/10/24 12:05:07;;;;;;;2.95;0.85;;;;;;;;;;5045336;28;20465;-85
2022/10/24 12:07:33;;;;;;;2.95;0.77;;;;;;;;;;5045541;28;20053;-84
2022/10/24 12:10:15;;;;;;;3.50;0.70;;;;;;;;;;5046173;28;20052;-85
2022/10/24 12:13:00;;;;;;;4.60;0.73;;;;;;;;;;5035223;28;20220;-86
2022/10/24 12:15:33;;;;;;;3.50;0.60;;;;;;;;;;5040583;28;20045;-86
2022/10/24 12:18:24;;;;;;;2.17;0.50;;;;;;;;;;5058523;28;20143;-86
2022/10/24 12:20:52;;;;;;;2.30;0.65;;;;;;;;;;5058754;28;20056;-87
2022/10/24 12:23:20;;;;;;;3.13;0.50;;;;;;;;;;5058663;28;20056;-86
2022/10/24 12:26:00;;;;;;;2.20;0.73;;;;;;;;;;5058856;28;20067;-87
2022/10/24 12:28:26;;;;;;;1.80;0.45;;;;;;;;;;5059519;28;20057;-84
2022/10/24 12:31:17;;;;;;;1.50;0.52;;;;;;;;;;5042078;28;20045;-84
2022/10/24 12:34:08;;;;;;;1.45;0.50;;;;;;;;;;5056408;28;20077;-85
2022/10/24 12:36:53;;;;;;;1.30;0.70;;;;;;;;;;5064796;28;20053;-84
2022/10/24 12:39:33;;;;;;;2.53;0.60;;;;;;;;;;5061536;28;20417;-85
2022/10/24 12:42:00;;;;;;;0.93;0.50;;;;;;;;;;5062160;28;20223;-85
2022/10/24 12:44:32;;;;;;;2.08;0.50;;;;;;;;;;5059972;28;20585;-84
2022/10/24 12:46:59;;;;;;;2.00;0.60;;;;;;;;;;5063165;28;20124;-85
2022/10/24 12:49:27;;;;;;;5.10;0.68;;;;;;;;;;5062258;28;20080;-83
2022/10/24 12:51:53;;;;;;;4.93;0.63;;;;;;;;;;5045575;28;20055;-83
2022/10/24 12:54:40;;;;;;;2.67;0.80;;;;;;;;;;5047733;28;20063;-83
2022/10/24 12:57:07;;;;;;;0.93;0.60;;;;;;;;;;5059346;28;20080;-83
2022/10/24 12:59:44;;;;;;;1.67;0.70;;;;;;;;;;5062180;28;20049;-81
2022/10/24 13:02:10;;;;;;;3.08;0.65;;;;;;;;;;5051787;28;20049;-83
2022/10/24 13:04:55;;;;;;;2.70;0.40;;;;;;;;;;5043097;28;20045;-84
2022/10/24 13:07:41;;;;;;;2.27;0.63;;;;;;;;;;5057912;28;20057;-85
2022/10/24 13:10:19;;;;;;;4.93;0.50;;;;;;;;;;5057543;28;20075;-84
2022/10/24 13:12:55;;;;;;;1.33;0.43;;;;;;;;;;5024168;28;20046;-86
2022/10/24 13:15:28;;;;;;;4.30;0.73;;;;;;;;;;5036576;28;20053;-86
2022/10/24 13:18:06;;;;;;;2.25;0.70;;;;;;;;;;5036698;28;20053;-85
2022/10/24 13:20:37;;;;;;;2.75;0.40;;;;;;;;;;5034910;28;20049;-84
2022/10/24 13:23:12;;;;;;;0.88;0.40;;;;;;;;;;5017768;28;20118;-84
2022/10/24 13:25:39;;;;;;;3.33;0.52;;;;;;;;;;5017406;28;20042;-83
2022/10/24 13:28:24;;;;;;;2.35;0.60;;;;;;;;;;5038249;28;20046;-84
2022/10/24 13:30:52;;;;;;;1.85;0.60;;;;;;;;;;5041069;28;20050;-83
2022/10/24 13:33:27;;;;;;;1.25;0.50;;;;;;;;;;5022421;28;20077;-84
2022/10/24 13:35:54;;;;;;;;;;;;;;;;;;5050971;28;20037;-83
2022/10/24 13:38:20;;;;;;;;;;;;;;;;;;5041827;28;20015;-82
2022/10/24 13:40:51;;;;;;;3.83;0.60;;;;;;;;;;5022230;28;20165;-83
2022/10/24 13:43:20;;;;;;;1.73;0.52;;;;;;;;;;5020378;28;20050;-81
2022/10/24 13:45:47;;;;;;;1.20;0.52;;;;;;;;;;5045083;28;20053;-82
2022/10/24 13:48:17;;;;;;;4.20;0.73;;;;;;;;;;5045972;28;20049;-83
2022/10/24 13:51:03;;;;;;;2.15;0.50;;;;;;;;;;5049713;28;20060;-83
2022/10/24 13:53:31;;;;;;;3.80;0.45;;;;;;;;;;5048884;28;20041;-82
2022/10/24 13:55:59;;;;;;;2.58;0.50;;;;;;;;;;5049129;28;20053;-84
2022/10/24 13:58:26;;;;;;;4.20;0.70;;;;;;;;;;5046983;28;20061;-85
2022/10/24 14:00:56;;;;;;;2.28;0.60;;;;;;;;;;5024404;28;20055;-84
2022/10/24 14:03:24;;;;;;;0.90;0.50;;;;;;;;;;5023824;28;20083;-85
2022/10/24 14:05:51;;;;;;;1.58;0.50;;;;;;;;;;5040720;28;20045;-83
2022/10/24 14:08:22;;;;;;;2.80;0.65;;;;;;;;;;5042778;28;20064;-84
2022/10/24 14:10:50;;;;;;;2.33;0.60;;;;;;;;;;5029141;28;20136;-83
2022/10/24 14:13:17;;;;;;;1.42;0.50;;;;;;;;;;5066047;28;20053;-83
2022/10/24 14:16:10;;;;;;;1.05;0.45;;;;;;;;;;5049510;28;20053;-86
2022/10/24 14:18:38;;;;;;;0.82;0.52;;;;;;;;;;5039718;28;20047;-83
2022/10/24 14:21:04;;;;;;;1.25;0.52;;;;;;;;;;5061514;28;20049;-86
2022/10/24 14:23:31;;;;;;;3.90;0.55;;;;;;;;;;5046232;28;20053;-84
2022/10/24 14:25:59;;;;;;;2.05;0.47;;;;;;;;;;5065721;28;20067;-82
2022/10/24 14:28:27;;;;;;;1.55;0.60;;;;;;;;;;5046089;28;20049;-84
2022/10/24 14:30:58;;;;;;;1.77;0.65;;;;;;;;;;5065181;28;20063;-83
2022/10/24 14:33:29;;;;;;;3.50;0.70;;;;;;;;;;5047456;28;20128;-84
2022/10/24 14:35:57;;;;;;;2.30;0.68;;;;;;;;;;5064517;28;20061;-83
2022/10/24 14:38:25;;;;;;;2.70;0.65;;;;;;;;;;5046122;28;20045;-84
2022/10/24 14:40:52;;;;;;;2.75;0.90;;;;;;;;;;5065479;28;20102;-81
2022/10/24 14:43:33;;;;;;;1.83;0.75;;;;;;;;;;5054094;28;20056;-82
2022/10/24 14:46:19;;;;;;;3.10;0.90;;;;;;;;;;5049055;28;20045;-85
2022/10/24 14:48:51;;;;;;;2.42;0.70;;;;;;;;;;5064019;28;20053;-83
2022/10/24 14:51:20;;;;;;;2.47;0.77;;;;;;;;;;5064419;28;20086;-85
2022/10/24 14:53:49;;;;;;;4.90;1.00;;;;;;;;;;5067390;28;20063;-84
2022/10/24 14:56:24;;;;;;;3.72;0.95;;;;;;;;;;5067917;28;20128;-84
2022/10/24 14:58:51;;;;;;;3.47;0.80;;;;;;;;;;5066119;28;20053;-83